EGPD/ABZ METAR and TAF weather

Enter ICAO airport designator
Station Type Date Time Source
EGPD METAR 2021/10/20 06:20 UTC NOAA

EGPD 200620Z AUTO 23008KT 9999 NCD 09/04 Q0990 NOSIG


Station Type Date Time Source
EGPD Decoded METAR 2021/10/20 06:20 UTC NOAA

Aberdeen / Dyce, United Kingdom (EGPD) 57-12N 002-13W 0M
Oct 20, 2021 - 02:20 AM EDT / 2021.10.20 0620 UTC
Wind: from the SW (230 degrees) at 9 MPH (8 KT):0
Visibility: greater than 7 mile(s):0
Temperature: 48 F (9 C)
Dew Point: 39 F (4 C)
Relative Humidity: 70%
Pressure (altimeter): 29.23 in. Hg (0990 hPa)
ob: EGPD 200620Z AUTO 23008KT 9999 NCD 09/04 Q0990 NOSIG
cycle: 6

Station Type Date Time Source
EGPD TAF 2021/10/20 06:09 UTC NOAA

TAF EGPD 200458Z 2006/2106 23012KT 9999 SCT035 PROB40
TEMPO 2010/2016 24017G27KT
BECMG 2014/2016 32012KT
TEMPO 2014/2019 6000 RA SHRA BKN010 PROB40
TEMPO 2016/2024 32015G27KT
TEMPO 2100/2106 31018G30KT 6000 SHRA BKN012 PROB30
TEMPO 2100/2106 2500 +SHRAGS BKN008 BKN018CB

Example: see airport list